createdAt,value
2022-11-29T05:07:00.066Z,27.25
2022-11-29T05:09:34.538Z,28.85
2022-11-29T05:12:24.482Z,30.15
2022-11-29T05:15:14.479Z,29.85
2022-11-29T05:17:57.607Z,28.77
2022-11-29T05:20:26.610Z,29.10
2022-11-29T05:23:20.008Z,28.92
2022-11-29T05:25:58.028Z,29.02
2022-11-29T05:28:56.391Z,29.95
2022-11-29T05:32:04.390Z,29.33
2022-11-29T05:34:51.803Z,30.20
2022-11-29T05:37:29.530Z,29.15
2022-11-29T05:40:10.028Z,29.52
2022-11-29T05:42:52.604Z,28.65
2022-11-29T05:45:32.111Z,27.00
2022-11-29T05:48:14.198Z,30.42
2022-11-29T05:53:33.050Z,29.23
2022-11-29T05:58:43.348Z,32.38
2022-11-29T06:01:34.453Z,29.75
2022-11-29T06:04:17.216Z,33.22
2022-11-29T06:06:55.222Z,31.38
2022-11-29T06:09:35.798Z,30.27
2022-11-29T06:12:18.174Z,30.02
2022-11-29T06:14:48.031Z,33.58
2022-11-29T06:17:38.791Z,32.20
2022-11-29T06:20:39.451Z,32.77
2022-11-29T06:23:25.292Z,32.92
2022-11-29T06:26:03.527Z,33.90
2022-11-29T06:28:55.437Z,34.13
2022-11-29T06:31:38.491Z,34.33
2022-11-29T06:34:30.687Z,35.90
2022-11-29T06:37:09.075Z,35.47
2022-11-29T06:39:37.006Z,37.20
2022-11-29T06:42:05.214Z,34.15
2022-11-29T06:44:32.767Z,34.25
2022-11-29T06:47:19.381Z,34.17
2022-11-29T06:49:51.047Z,34.17
2022-11-29T06:52:50.944Z,34.15
2022-11-29T06:55:41.450Z,36.63
2022-11-29T06:58:31.445Z,35.05
2022-11-29T07:01:35.062Z,35.65
2022-11-29T07:04:11.797Z,35.75
2022-11-29T07:07:07.323Z,34.97
2022-11-29T07:09:35.754Z,32.53
2022-11-29T07:12:03.627Z,30.25
2022-11-29T07:14:32.226Z,34.25
2022-11-29T07:17:33.642Z,34.05
2022-11-29T07:20:29.977Z,34.07
2022-11-29T07:23:17.134Z,34.47
2022-11-29T07:26:12.030Z,37.80
2022-11-29T07:28:39.726Z,38.85
2022-11-29T07:31:32.462Z,44.55
2022-11-29T07:34:32.131Z,36.20
2022-11-29T07:37:04.050Z,36.30
2022-11-29T07:42:17.356Z,32.08
2022-11-29T07:45:07.943Z,32.20
2022-11-29T07:47:36.163Z,31.15
2022-11-29T07:50:04.218Z,31.48
2022-11-29T07:52:32.149Z,31.10
2022-11-29T07:54:59.466Z,32.40
2022-11-29T07:57:26.883Z,31.50
2022-11-29T07:59:54.234Z,31.45
2022-11-29T08:02:31.811Z,34.75
2022-11-29T08:04:59.311Z,37.40
2022-11-29T08:07:26.576Z,33.58
2022-11-29T08:09:53.959Z,32.60
2022-11-29T08:12:21.263Z,32.35
2022-11-29T08:14:48.563Z,33.95
2022-11-29T08:17:15.783Z,36.40
2022-11-29T08:19:43.082Z,35.78
2022-11-29T08:22:11.066Z,33.15
2022-11-29T08:24:38.361Z,34.78
2022-11-29T08:27:05.905Z,33.30
2022-11-29T08:29:34.238Z,34.20
2022-11-29T08:32:01.998Z,36.80
2022-11-29T08:34:29.852Z,37.80
2022-11-29T08:36:57.499Z,36.17
2022-11-29T08:39:25.243Z,36.10
2022-11-29T08:41:52.570Z,35.70
2022-11-29T08:44:20.247Z,36.95
2022-11-29T08:47:06.067Z,34.88
2022-11-29T08:49:33.801Z,36.50
2022-11-29T08:52:19.678Z,36.55
2022-11-29T08:54:47.661Z,39.13
2022-11-29T09:00:05.559Z,34.58
2022-11-29T09:02:33.041Z,35.78
2022-11-29T09:05:00.358Z,40.67
2022-11-29T09:07:28.121Z,36.72
2022-11-29T09:09:55.851Z,37.55
2022-11-29T09:12:23.159Z,33.42
2022-11-29T09:14:50.969Z,34.35
2022-11-29T09:17:18.237Z,34.60
2022-11-29T09:19:45.739Z,35.40
2022-11-29T09:22:13.803Z,35.63
2022-11-29T09:24:41.163Z,38.85
2022-11-29T09:27:08.642Z,38.20
2022-11-29T09:29:36.551Z,40.75
2022-11-29T09:32:04.075Z,39.30
2022-11-29T09:34:31.492Z,36.83
2022-11-29T09:36:59.055Z,34.67
2022-11-29T09:39:26.487Z,32.00
2022-11-29T09:42:15.616Z,32.40
2022-11-29T09:45:05.623Z,32.63
2022-11-29T09:48:06.862Z,31.35
2022-11-29T09:50:35.493Z,29.17
2022-11-29T09:53:08.855Z,29.85
2022-11-29T09:55:56.106Z,30.55
2022-11-29T09:58:33.304Z,29.60
2022-11-29T10:01:06.446Z,27.98
2022-11-29T10:03:44.685Z,28.48
2022-11-29T10:06:24.355Z,28.38
2022-11-29T10:08:54.709Z,29.45
2022-11-29T10:11:25.120Z,29.30
2022-11-29T10:13:59.747Z,29.75
2022-11-29T10:16:49.563Z,28.83
2022-11-29T10:19:46.701Z,25.00
2022-11-29T10:22:34.703Z,24.33
2022-11-29T10:25:03.350Z,25.85
2022-11-29T10:27:31.237Z,27.00
2022-11-29T10:30:00.972Z,26.35
2022-11-29T10:32:32.015Z,26.08
2022-11-29T10:35:00.875Z,43.23
2022-11-29T10:37:32.790Z,27.10
2022-11-29T10:42:49.274Z,24.25
2022-11-29T10:45:38.833Z,23.63
2022-11-29T10:48:20.343Z,18.33
2022-11-29T10:50:50.185Z,19.05
2022-11-29T10:53:25.855Z,22.83
2022-11-29T10:55:58.348Z,23.20
2022-11-29T10:58:30.419Z,22.27
2022-11-29T11:03:32.358Z,20.67
2022-11-29T11:06:08.067Z,22.67
2022-11-29T11:08:35.954Z,21.25
2022-11-29T11:11:06.171Z,19.90
2022-11-29T11:13:34.987Z,20.92
2022-11-29T11:16:32.788Z,25.48
2022-11-29T11:19:21.419Z,21.20
2022-11-29T11:21:48.696Z,21.25
2022-11-29T11:24:32.584Z,21.83
2022-11-29T11:27:01.240Z,21.27
2022-11-29T11:29:44.130Z,21.92
2022-11-29T11:32:18.034Z,22.05
2022-11-29T11:34:57.315Z,20.17
2022-11-29T11:37:28.738Z,24.90
2022-11-29T11:39:59.791Z,30.48
2022-11-29T11:42:38.267Z,18.73
2022-11-29T11:45:05.928Z,18.88
2022-11-29T11:47:37.110Z,20.10
2022-11-29T11:50:12.414Z,27.65
2022-11-29T11:52:41.303Z,20.65
2022-11-29T11:55:37.276Z,19.52
2022-11-29T11:58:16.465Z,19.80
2022-11-29T12:01:04.784Z,20.08
2022-11-29T12:03:57.635Z,18.40
2022-11-29T12:09:16.443Z,20.42
2022-11-29T12:11:46.718Z,22.60
2022-11-29T12:14:39.148Z,20.13
2022-11-29T12:17:20.644Z,19.17
2022-11-29T12:19:58.942Z,21.23
2022-11-29T12:22:32.808Z,18.85
2022-11-29T12:25:06.371Z,19.05
2022-11-29T12:27:33.618Z,19.70
2022-11-29T12:30:01.246Z,17.92
2022-11-29T12:32:37.256Z,16.77
2022-11-29T12:35:29.550Z,19.92
2022-11-29T12:38:13.230Z,20.70
2022-11-29T12:41:00.114Z,17.30
2022-11-29T12:43:52.111Z,17.08
2022-11-29T12:46:27.761Z,25.58
2022-11-29T12:49:40.761Z,24.95
2022-11-29T12:52:23.489Z,32.63
2022-11-29T12:55:01.988Z,32.63
2022-11-29T12:57:35.659Z,18.17
2022-11-29T13:00:12.833Z,48.72
2022-11-29T13:02:55.121Z,22.50
2022-11-29T13:05:33.682Z,17.42
2022-11-29T13:08:35.881Z,17.75
2022-11-29T13:13:43.871Z,17.65
2022-11-29T13:16:23.968Z,17.90
2022-11-29T13:19:23.766Z,18.00
2022-11-29T13:22:02.951Z,17.15
2022-11-29T13:24:46.290Z,17.73
2022-11-29T13:27:27.282Z,17.27
2022-11-29T13:29:55.989Z,17.92
2022-11-29T13:32:47.630Z,22.80
2022-11-29T13:35:15.120Z,19.52
2022-11-29T13:37:55.027Z,20.85
2022-11-29T13:41:01.587Z,20.25
2022-11-29T13:43:43.882Z,16.27
2022-11-29T13:46:35.604Z,14.98
2022-11-29T13:49:03.475Z,15.35
2022-11-29T13:51:37.401Z,17.17
2022-11-29T13:54:26.780Z,17.50
2022-11-29T13:57:06.746Z,16.70
2022-11-29T13:59:41.579Z,16.92
2022-11-29T14:02:29.769Z,21.27
2022-11-29T14:04:57.921Z,21.15
2022-11-29T14:07:25.234Z,15.80
2022-11-29T14:10:03.954Z,14.70
2022-11-29T14:12:39.863Z,14.75
2022-11-29T14:15:22.538Z,16.08
2022-11-29T14:17:51.742Z,14.88
2022-11-29T14:20:22.726Z,15.52
2022-11-29T14:23:05.605Z,15.17
2022-11-29T14:25:54.957Z,15.15
2022-11-29T14:28:22.254Z,16.08
2022-11-29T14:30:58.545Z,16.65
2022-11-29T14:33:42.378Z,17.83
2022-11-29T14:36:36.967Z,16.70
2022-11-29T14:39:24.041Z,15.52
2022-11-29T14:42:14.562Z,17.33
2022-11-29T14:45:06.312Z,17.33
2022-11-29T14:47:46.926Z,16.35
2022-11-29T14:50:42.107Z,15.93
2022-11-29T14:53:30.216Z,15.93
2022-11-29T14:56:32.010Z,15.70
2022-11-29T14:59:36.549Z,17.70
2022-11-29T15:02:39.826Z,27.75
2022-11-29T15:05:15.791Z,16.77
2022-11-29T15:07:51.196Z,21.63
2022-11-29T15:10:24.211Z,21.63
2022-11-29T15:12:52.579Z,17.52
2022-11-29T15:16:10.588Z,18.85
2022-11-29T15:18:52.157Z,18.20
2022-11-29T15:21:34.578Z,17.65
2022-11-29T15:24:10.707Z,18.05
2022-11-29T15:26:38.142Z,17.52
2022-11-29T15:29:18.040Z,17.45
2022-11-29T15:31:51.913Z,17.85
2022-11-29T15:34:30.202Z,18.55
2022-11-29T15:36:58.558Z,20.63
2022-11-29T15:39:32.829Z,28.08
2022-11-29T15:42:10.371Z,65.68
2022-11-29T15:44:38.111Z,44.05
2022-11-29T15:47:26.679Z,26.10
2022-11-29T15:49:54.331Z,21.65
2022-11-29T15:52:31.073Z,22.08
2022-11-29T15:55:12.167Z,23.55
2022-11-29T15:57:42.829Z,24.73
2022-11-29T16:00:24.164Z,22.38
2022-11-29T16:02:56.536Z,20.58
2022-11-29T16:05:29.262Z,21.95
2022-11-29T16:08:01.179Z,25.00
2022-11-29T16:10:39.498Z,21.60
2022-11-29T16:13:31.158Z,26.15
2022-11-29T16:16:20.723Z,27.33
2022-11-29T16:18:50.435Z,25.80
2022-11-29T16:21:27.248Z,26.42
2022-11-29T16:23:55.531Z,24.20
2022-11-29T16:26:26.266Z,23.67
2022-11-29T16:28:56.429Z,25.35
2022-11-29T16:31:32.123Z,23.25
2022-11-29T16:34:15.703Z,22.10
2022-11-29T16:36:43.041Z,23.05
2022-11-29T16:39:23.071Z,22.42
2022-11-29T16:42:18.295Z,24.52
2022-11-29T16:44:50.199Z,24.70
2022-11-29T16:47:20.402Z,23.55
2022-11-29T16:50:03.069Z,24.95
2022-11-29T16:52:33.131Z,26.33
2022-11-29T16:55:00.969Z,23.75
2022-11-29T16:57:29.676Z,24.17
2022-11-29T16:59:57.083Z,27.58
2022-11-29T17:02:24.743Z,29.00
2022-11-29T17:04:52.355Z,27.73
2022-11-29T17:07:39.200Z,26.52
2022-11-29T17:10:09.255Z,28.70
2022-11-29T17:12:36.951Z,38.88
2022-11-29T17:15:04.771Z,25.45
2022-11-29T17:17:32.690Z,22.90
2022-11-29T17:19:59.993Z,21.65
2022-11-29T17:22:27.302Z,22.13
2022-11-29T17:24:55.144Z,21.73
2022-11-29T17:27:22.635Z,23.20
2022-11-29T17:29:50.322Z,20.95
2022-11-29T17:32:19.080Z,23.75
2022-11-29T17:34:49.289Z,25.60
2022-11-29T17:37:16.499Z,30.25
2022-11-29T17:39:47.188Z,30.52
2022-11-29T17:42:15.226Z,24.42
2022-11-29T17:44:43.407Z,21.80
2022-11-29T17:47:10.632Z,24.00
2022-11-29T17:49:37.918Z,27.63
2022-11-29T17:52:05.729Z,38.38
2022-11-29T17:54:33.364Z,41.47
2022-11-29T17:57:00.923Z,36.05
2022-11-29T17:59:28.459Z,34.55
2022-11-29T18:01:56.194Z,33.47
2022-11-29T18:04:23.932Z,31.63
2022-11-29T18:06:51.655Z,35.28
2022-11-29T18:09:19.523Z,36.22
2022-11-29T18:11:49.685Z,40.45
2022-11-29T18:14:23.617Z,41.25
2022-11-29T18:16:52.208Z,34.67
2022-11-29T18:19:21.978Z,44.70
2022-11-29T18:21:50.427Z,37.83
2022-11-29T18:24:18.583Z,35.65
2022-11-29T18:26:46.476Z,40.13
2022-11-29T18:29:14.650Z,33.05
2022-11-29T18:31:44.106Z,32.67
2022-11-29T18:34:13.641Z,29.08
2022-11-29T18:36:44.097Z,34.10
2022-11-29T18:39:14.492Z,27.88
2022-11-29T18:41:47.869Z,28.05
2022-11-29T18:44:17.452Z,29.50
2022-11-29T18:46:46.470Z,28.88
2022-11-29T18:49:15.394Z,33.35
2022-11-29T18:51:45.550Z,29.77
2022-11-29T18:54:15.050Z,40.35
2022-11-29T18:56:43.899Z,35.17
2022-11-29T18:59:14.686Z,43.53
2022-11-29T19:01:45.847Z,25.13
2022-11-29T19:04:17.183Z,24.02
2022-11-29T19:06:44.768Z,24.48
2022-11-29T19:09:14.714Z,23.50
2022-11-29T19:11:42.543Z,24.90
2022-11-29T19:14:11.987Z,23.88
2022-11-29T19:16:42.470Z,26.23
2022-11-29T19:19:09.959Z,29.05
2022-11-29T19:21:39.701Z,31.85
2022-11-29T19:24:14.580Z,30.08
2022-11-29T19:26:46.790Z,27.50
2022-11-29T19:31:42.534Z,33.28
2022-11-29T19:34:10.442Z,36.17
2022-11-29T19:36:43.045Z,41.67
2022-11-29T19:39:16.548Z,43.00
2022-11-29T19:41:47.068Z,56.28
2022-11-29T19:44:14.889Z,47.88
2022-11-29T19:46:45.875Z,34.40
2022-11-29T19:49:13.223Z,39.93
2022-11-29T19:51:41.458Z,37.35
2022-11-29T19:54:10.524Z,39.58
2022-11-29T19:56:38.859Z,25.52
2022-11-29T19:59:08.025Z,26.55
2022-11-29T20:01:43.804Z,22.13
2022-11-29T20:04:13.346Z,23.58
2022-11-29T20:06:41.472Z,23.83
2022-11-29T20:09:10.054Z,23.08
2022-11-29T20:11:38.600Z,24.88
2022-11-29T20:14:07.852Z,26.67
2022-11-29T20:16:37.829Z,25.25
2022-11-29T20:19:14.540Z,26.38
2022-11-29T20:21:45.074Z,25.98
2022-11-29T20:24:14.454Z,27.75
2022-11-29T20:26:46.052Z,28.92
2022-11-29T20:29:14.218Z,32.47
2022-11-29T20:31:49.500Z,29.58
2022-11-29T20:34:18.620Z,30.05
2022-11-29T20:37:13.639Z,29.58
2022-11-29T20:39:54.408Z,29.13
2022-11-29T20:42:49.563Z,28.17
2022-11-29T20:45:17.964Z,28.40
2022-11-29T20:47:53.578Z,28.92
2022-11-29T20:50:23.791Z,28.95
2022-11-29T20:53:13.092Z,28.30
2022-11-29T20:55:47.463Z,29.55
2022-11-29T20:58:17.579Z,31.23
2022-11-29T21:00:48.170Z,31.40
2022-11-29T21:03:16.788Z,34.25
2022-11-29T21:05:45.593Z,34.10
2022-11-29T21:08:14.603Z,35.97
2022-11-29T21:10:42.154Z,49.30
2022-11-29T21:13:11.828Z,41.22
2022-11-29T21:15:40.407Z,36.75
2022-11-29T21:18:08.158Z,34.60
2022-11-29T21:20:36.352Z,35.13
2022-11-29T21:23:22.269Z,39.88
2022-11-29T21:26:00.688Z,34.30
2022-11-29T21:28:34.385Z,30.85
2022-11-29T21:31:02.032Z,36.65
2022-11-29T21:33:29.816Z,40.47
2022-11-29T21:35:58.916Z,33.97
2022-11-29T21:38:27.611Z,41.20
2022-11-29T21:40:55.274Z,36.55
2022-11-29T21:43:50.244Z,32.97
2022-11-29T21:46:10.920Z,35.72
2022-11-29T21:48:38.317Z,34.63
2022-11-29T21:51:07.156Z,36.67
2022-11-29T21:53:36.907Z,41.38
2022-11-29T21:56:06.995Z,59.28
2022-11-29T21:58:36.112Z,50.22
2022-11-29T22:01:10.535Z,32.47
2022-11-29T22:03:40.132Z,35.50
2022-11-29T22:06:10.450Z,32.63
2022-11-29T22:08:39.641Z,32.08
2022-11-29T22:11:12.553Z,31.95
2022-11-29T22:14:01.324Z,30.63
2022-11-29T22:16:30.804Z,30.80
2022-11-29T22:18:58.083Z,30.85
2022-11-29T22:21:25.650Z,31.52
2022-11-29T22:23:53.039Z,34.15
2022-11-29T22:26:21.922Z,32.75
2022-11-29T22:28:49.728Z,36.63
2022-11-29T22:31:17.029Z,37.33
2022-11-29T22:33:44.372Z,41.20
2022-11-29T22:36:12.917Z,36.35
2022-11-29T22:38:40.599Z,32.35
2022-11-29T22:41:11.191Z,29.10
2022-11-29T22:43:39.375Z,27.60
2022-11-29T22:46:18.636Z,29.70
2022-11-29T22:48:48.058Z,30.58
2022-11-29T22:51:19.489Z,31.13
2022-11-29T22:53:55.035Z,31.00
2022-11-29T22:56:30.706Z,35.80
2022-11-29T22:58:58.443Z,32.90
2022-11-29T23:01:30.878Z,35.92
